Time;durP1;ratioP1;P1;durP2;ratioP2;P2;SDS_P1;SDS_P2;PMS_P1;PMS_P2;Temp;Humidity;BMP_temperature;BMP_pressure;BME280_temperature;BME280_humidity;BME280_pressure;Samples;Min_cycle;Max_cycle;Signal;HPM_P1;HPM_P2
2024/03/26 00:00:50;;;;;;;1.80;1.45;;;;;;;;;;4992650;28;20030;-77
2024/03/26 00:03:16;;;;;;;2.90;1.33;;;;;;;;;;4992357;28;20026;-76
2024/03/26 00:05:43;;;;;;;1.52;1.17;;;;;;;;;;4992648;28;20019;-75
2024/03/26 00:08:09;;;;;;;1.67;1.10;;;;;;;;;;4992763;28;20098;-76
2024/03/26 00:10:35;;;;;;;2.83;1.33;;;;;;;;;;4992629;28;20109;-77
2024/03/26 00:13:01;;;;;;;2.00;1.17;;;;;;;;;;4992906;28;20026;-76
2024/03/26 00:15:27;;;;;;;3.22;1.50;;;;;;;;;;4992428;28;20022;-76
2024/03/26 00:17:53;;;;;;;1.88;1.20;;;;;;;;;;4992766;28;20033;-76
2024/03/26 00:20:19;;;;;;;1.48;0.90;;;;;;;;;;4992909;28;20023;-76
2024/03/26 00:22:46;;;;;;;1.10;0.90;;;;;;;;;;4992354;28;20101;-76
2024/03/26 00:25:12;;;;;;;2.20;1.10;;;;;;;;;;4993779;28;20081;-75
2024/03/26 00:27:38;;;;;;;1.10;1.00;;;;;;;;;;5011932;28;20097;-77
2024/03/26 00:30:04;;;;;;;1.90;1.10;;;;;;;;;;4994737;28;20042;-77
2024/03/26 00:32:30;;;;;;;0.85;0.80;;;;;;;;;;4995634;28;20030;-76
2024/03/26 00:34:57;;;;;;;1.20;1.10;;;;;;;;;;4995872;28;20027;-75
2024/03/26 00:37:23;;;;;;;2.38;1.20;;;;;;;;;;4994951;28;20035;-76
2024/03/26 00:39:49;;;;;;;1.40;1.13;;;;;;;;;;4995967;28;20033;-75
2024/03/26 00:42:15;;;;;;;1.95;1.20;;;;;;;;;;4996503;28;20105;-75
2024/03/26 00:44:41;;;;;;;3.20;1.30;;;;;;;;;;4996927;28;20060;-76
2024/03/26 00:47:07;;;;;;;3.40;1.42;;;;;;;;;;4996179;28;20068;-76
2024/03/26 00:49:33;;;;;;;2.10;1.27;;;;;;;;;;5003420;28;20022;-76
2024/03/26 00:51:59;;;;;;;1.58;1.02;;;;;;;;;;5008910;28;20049;-76
2024/03/26 00:54:26;;;;;;;1.50;0.90;;;;;;;;;;4996315;28;20053;-76
2024/03/26 00:56:52;;;;;;;1.67;1.30;;;;;;;;;;4997456;28;20026;-75
2024/03/26 00:59:18;;;;;;;2.13;1.10;;;;;;;;;;5007633;28;20515;-76
2024/03/26 01:01:44;;;;;;;1.90;0.95;;;;;;;;;;5001792;28;20019;-75
2024/03/26 01:04:10;;;;;;;1.50;1.10;;;;;;;;;;5011067;28;20037;-75
2024/03/26 01:06:37;;;;;;;1.58;1.15;;;;;;;;;;4998145;28;20023;-75
2024/03/26 01:09:03;;;;;;;1.38;0.90;;;;;;;;;;5000909;28;20027;-74
2024/03/26 01:11:29;;;;;;;1.00;0.90;;;;;;;;;;4999653;28;20019;-74
2024/03/26 01:13:57;;;;;;;2.40;1.27;;;;;;;;;;4999596;28;20026;-75
2024/03/26 01:16:23;;;;;;;2.22;1.38;;;;;;;;;;5000125;28;20053;-76
2024/03/26 01:18:50;;;;;;;3.63;1.40;;;;;;;;;;4998443;28;20030;-77
2024/03/26 01:21:16;;;;;;;1.77;0.95;;;;;;;;;;4997497;28;20040;-76
2024/03/26 01:23:42;;;;;;;1.55;1.05;;;;;;;;;;4996291;28;20105;-77
2024/03/26 01:26:08;;;;;;;1.67;1.17;;;;;;;;;;4994794;28;20019;-76
2024/03/26 01:28:34;;;;;;;1.73;1.15;;;;;;;;;;4994487;28;20087;-76
2024/03/26 01:31:01;;;;;;;2.10;1.17;;;;;;;;;;4991875;28;20034;-77
2024/03/26 01:33:27;;;;;;;1.58;1.23;;;;;;;;;;4995661;28;20057;-76
2024/03/26 01:35:54;;;;;;;1.42;1.15;;;;;;;;;;5003706;28;20027;-76
2024/03/26 01:38:21;;;;;;;1.30;1.10;;;;;;;;;;5006481;28;20022;-77
2024/03/26 01:40:47;;;;;;;1.77;1.05;;;;;;;;;;5006920;28;20491;-75
2024/03/26 01:43:13;;;;;;;2.33;1.00;;;;;;;;;;5008365;28;20036;-75
2024/03/26 01:45:39;;;;;;;1.63;1.13;;;;;;;;;;5009769;28;20067;-76
2024/03/26 01:48:06;;;;;;;1.95;1.10;;;;;;;;;;5011145;28;20454;-76
2024/03/26 01:50:32;;;;;;;4.00;1.52;;;;;;;;;;4998606;28;20281;-76
2024/03/26 01:52:59;;;;;;;2.55;1.52;;;;;;;;;;4988771;28;20161;-75
2024/03/26 01:55:25;;;;;;;2.75;1.88;;;;;;;;;;4988929;28;20472;-76
2024/03/26 01:57:52;;;;;;;2.30;1.17;;;;;;;;;;4994180;28;20378;-75
2024/03/26 02:00:18;;;;;;;1.88;1.23;;;;;;;;;;4994136;28;20034;-76
2024/03/26 02:02:44;;;;;;;2.08;1.25;;;;;;;;;;4994689;28;20101;-75
2024/03/26 02:05:11;;;;;;;2.35;1.30;;;;;;;;;;4992996;28;20026;-75
2024/03/26 02:07:38;;;;;;;2.20;1.50;;;;;;;;;;5001207;28;20026;-75
2024/03/26 02:10:06;;;;;;;1.63;1.25;;;;;;;;;;5000224;28;20022;-75
2024/03/26 02:12:32;;;;;;;1.77;1.30;;;;;;;;;;4993802;28;20143;-74
2024/03/26 02:14:58;;;;;;;2.30;1.23;;;;;;;;;;4994288;28;20532;-75
2024/03/26 02:17:24;;;;;;;1.27;1.02;;;;;;;;;;4994278;28;20060;-76
2024/03/26 02:19:50;;;;;;;1.70;1.05;;;;;;;;;;5008560;28;20062;-76
2024/03/26 02:22:17;;;;;;;1.85;1.25;;;;;;;;;;4996218;28;20030;-75
2024/03/26 02:24:43;;;;;;;2.30;1.02;;;;;;;;;;4993709;28;20014;-76
2024/03/26 02:27:09;;;;;;;1.40;1.05;;;;;;;;;;4994026;28;20077;-76
2024/03/26 02:29:35;;;;;;;2.00;1.30;;;;;;;;;;4993734;28;20022;-76
2024/03/26 02:32:01;;;;;;;2.22;1.33;;;;;;;;;;4994158;28;20018;-76
2024/03/26 02:34:27;;;;;;;2.65;1.60;;;;;;;;;;4993301;28;20481;-76
2024/03/26 02:36:53;;;;;;;2.03;1.33;;;;;;;;;;4993369;28;20030;-77
2024/03/26 02:39:20;;;;;;;2.10;1.55;;;;;;;;;;4993761;28;20026;-79
2024/03/26 02:41:46;;;;;;;2.10;1.08;;;;;;;;;;4993648;28;20485;-76
2024/03/26 02:44:12;;;;;;;2.22;1.17;;;;;;;;;;4993265;28;20449;-75
2024/03/26 02:46:38;;;;;;;1.40;1.15;;;;;;;;;;4992776;28;20105;-76
2024/03/26 02:49:05;;;;;;;2.00;1.50;;;;;;;;;;4992293;28;20037;-75
2024/03/26 02:51:31;;;;;;;2.00;0.70;;;;;;;;;;4992481;28;20081;-76
2024/03/26 02:53:57;;;;;;;2.10;1.25;;;;;;;;;;4992097;28;20038;-75
2024/03/26 02:56:23;;;;;;;1.45;1.20;;;;;;;;;;4992515;28;20044;-75
2024/03/26 02:58:49;;;;;;;2.33;1.70;;;;;;;;;;4993117;28;20022;-76
2024/03/26 03:01:15;;;;;;;3.17;1.33;;;;;;;;;;4992997;28;20377;-75
2024/03/26 03:03:42;;;;;;;1.55;1.17;;;;;;;;;;4992601;28;20033;-76
2024/03/26 03:06:08;;;;;;;2.47;1.10;;;;;;;;;;4992843;28;20025;-76
2024/03/26 03:08:35;;;;;;;1.63;1.02;;;;;;;;;;4992710;28;20022;-76
2024/03/26 03:11:01;;;;;;;2.60;1.23;;;;;;;;;;4992904;28;20479;-76
2024/03/26 03:13:27;;;;;;;1.75;1.13;;;;;;;;;;4992613;28;20034;-75
2024/03/26 03:15:54;;;;;;;1.73;1.40;;;;;;;;;;4993169;28;20436;-75
2024/03/26 03:18:20;;;;;;;1.00;0.73;;;;;;;;;;4992637;28;20130;-77
2024/03/26 03:20:46;;;;;;;0.75;0.75;;;;;;;;;;4992851;28;20122;-76
2024/03/26 03:23:13;;;;;;;1.63;0.98;;;;;;;;;;4991992;28;20397;-76
2024/03/26 03:25:39;;;;;;;1.30;0.90;;;;;;;;;;4992779;28;20030;-76
2024/03/26 03:28:06;;;;;;;1.10;1.00;;;;;;;;;;4993215;28;20101;-75
2024/03/26 03:30:32;;;;;;;2.03;0.82;;;;;;;;;;4992658;28;20520;-76
2024/03/26 03:32:58;;;;;;;1.95;1.00;;;;;;;;;;4992353;28;20500;-76
2024/03/26 03:35:24;;;;;;;1.52;1.08;;;;;;;;;;4992662;28;20496;-76
2024/03/26 03:37:51;;;;;;;1.08;0.90;;;;;;;;;;4993017;28;20040;-76
2024/03/26 03:40:17;;;;;;;1.70;0.88;;;;;;;;;;4992792;28;20061;-75
2024/03/26 03:42:44;;;;;;;1.00;0.68;;;;;;;;;;4992592;28;20018;-76
2024/03/26 03:45:11;;;;;;;1.92;1.33;;;;;;;;;;4992711;28;20027;-76
2024/03/26 03:47:37;;;;;;;1.63;1.30;;;;;;;;;;4993066;28;20504;-75
2024/03/26 03:50:04;;;;;;;1.13;0.70;;;;;;;;;;4991555;28;20033;-75
2024/03/26 03:52:30;;;;;;;1.30;0.95;;;;;;;;;;4992679;28;20031;-75
2024/03/26 03:54:56;;;;;;;1.67;1.00;;;;;;;;;;4990979;28;20034;-79
2024/03/26 03:57:22;;;;;;;2.00;0.90;;;;;;;;;;4995162;28;20056;-79
2024/03/26 03:59:48;;;;;;;1.48;1.05;;;;;;;;;;4993761;28;20121;-79
2024/03/26 04:02:14;;;;;;;1.73;1.00;;;;;;;;;;4997492;28;20026;-81
2024/03/26 04:04:41;;;;;;;2.40;1.00;;;;;;;;;;5019128;28;20041;-83
2024/03/26 04:07:07;;;;;;;0.73;0.63;;;;;;;;;;5020231;28;20046;-83
2024/03/26 04:09:33;;;;;;;1.55;1.25;;;;;;;;;;5019367;28;20025;-80
2024/03/26 04:11:59;;;;;;;0.90;0.80;;;;;;;;;;5005077;28;20023;-82
2024/03/26 04:14:25;;;;;;;2.08;0.90;;;;;;;;;;5019479;28;20022;-85
2024/03/26 04:16:51;;;;;;;0.98;0.70;;;;;;;;;;5020038;28;20045;-83
2024/03/26 04:19:18;;;;;;;1.25;0.82;;;;;;;;;;5012402;28;20030;-79
2024/03/26 04:21:44;;;;;;;3.22;0.93;;;;;;;;;;5008776;28;20070;-78
2024/03/26 04:24:10;;;;;;;3.05;1.38;;;;;;;;;;5016158;28;20054;-83
2024/03/26 04:26:36;;;;;;;1.08;1.02;;;;;;;;;;5017242;28;20038;-82
2024/03/26 04:29:02;;;;;;;1.50;1.00;;;;;;;;;;5019384;28;20031;-84
2024/03/26 04:31:28;;;;;;;1.20;1.10;;;;;;;;;;5002465;28;20034;-78
2024/03/26 04:33:54;;;;;;;2.63;1.27;;;;;;;;;;4999439;28;20076;-79
2024/03/26 04:36:20;;;;;;;2.10;1.30;;;;;;;;;;4992933;28;20023;-77
2024/03/26 04:38:47;;;;;;;1.15;1.02;;;;;;;;;;5009923;28;20022;-78
2024/03/26 04:41:13;;;;;;;1.35;1.20;;;;;;;;;;4996650;28;20026;-77
2024/03/26 04:43:40;;;;;;;2.28;1.50;;;;;;;;;;4995674;28;20096;-78
2024/03/26 04:46:06;;;;;;;1.55;1.40;;;;;;;;;;4996926;28;20059;-79
2024/03/26 04:48:32;;;;;;;1.30;1.20;;;;;;;;;;4993697;28;20117;-77
2024/03/26 04:50:58;;;;;;;1.60;0.98;;;;;;;;;;4993301;28;20039;-77
2024/03/26 04:53:24;;;;;;;0.85;0.85;;;;;;;;;;4995802;28;20030;-77
2024/03/26 04:55:50;;;;;;;1.40;0.93;;;;;;;;;;4996345;28;20109;-77
2024/03/26 04:58:17;;;;;;;1.15;0.90;;;;;;;;;;4996563;28;20208;-77
2024/03/26 05:00:43;;;;;;;2.47;1.27;;;;;;;;;;4994553;28;20081;-77
2024/03/26 05:03:09;;;;;;;1.20;1.10;;;;;;;;;;4995784;28;20532;-78
2024/03/26 05:05:35;;;;;;;1.13;0.93;;;;;;;;;;4996699;28;20042;-78
2024/03/26 05:08:01;;;;;;;2.38;1.20;;;;;;;;;;4996003;28;20030;-77
2024/03/26 05:10:29;;;;;;;1.45;0.90;;;;;;;;;;4995589;28;20105;-78
2024/03/26 05:12:55;;;;;;;1.70;1.08;;;;;;;;;;4994166;28;20469;-79
2024/03/26 05:15:21;;;;;;;0.90;0.80;;;;;;;;;;4996059;28;20030;-77
2024/03/26 05:17:48;;;;;;;1.45;1.10;;;;;;;;;;4995672;28;20022;-77
2024/03/26 05:20:14;;;;;;;0.65;0.65;;;;;;;;;;4995450;28;20045;-77
2024/03/26 05:22:40;;;;;;;1.25;1.00;;;;;;;;;;4995268;28;20055;-76
2024/03/26 05:25:06;;;;;;;1.30;1.10;;;;;;;;;;4995136;28;20028;-77
2024/03/26 05:27:33;;;;;;;1.30;0.85;;;;;;;;;;4994757;28;20101;-77
2024/03/26 05:29:59;;;;;;;0.93;0.70;;;;;;;;;;4995602;28;20014;-77
2024/03/26 05:32:25;;;;;;;1.40;0.98;;;;;;;;;;4994731;28;20037;-77
2024/03/26 05:34:52;;;;;;;0.73;0.73;;;;;;;;;;4995593;28;20116;-77
2024/03/26 05:37:18;;;;;;;0.63;0.60;;;;;;;;;;4994990;28;20461;-77
2024/03/26 05:39:44;;;;;;;2.35;1.23;;;;;;;;;;5009803;28;20041;-77
2024/03/26 05:42:10;;;;;;;3.72;0.82;;;;;;;;;;5010041;28;20029;-78
2024/03/26 05:44:36;;;;;;;0.52;0.52;;;;;;;;;;4995469;28;20328;-78
2024/03/26 05:47:03;;;;;;;1.13;0.70;;;;;;;;;;4995103;28;20470;-77
2024/03/26 05:49:29;;;;;;;2.08;0.95;;;;;;;;;;4994880;28;20072;-77
2024/03/26 05:51:55;;;;;;;1.70;1.15;;;;;;;;;;5010255;28;20037;-77
2024/03/26 05:54:21;;;;;;;2.17;1.45;;;;;;;;;;5009618;28;20030;-78
2024/03/26 05:56:47;;;;;;;1.98;1.30;;;;;;;;;;4995046;28;20021;-77
2024/03/26 05:59:13;;;;;;;2.47;1.15;;;;;;;;;;5010435;28;20030;-78
2024/03/26 06:01:40;;;;;;;1.55;1.05;;;;;;;;;;4994960;28;20362;-77
2024/03/26 06:04:06;;;;;;;1.27;0.93;;;;;;;;;;4995045;28;20026;-78
2024/03/26 06:06:32;;;;;;;1.27;0.90;;;;;;;;;;4994753;28;20030;-77
2024/03/26 06:08:58;;;;;;;0.90;0.90;;;;;;;;;;5009967;28;20034;-77
2024/03/26 06:11:24;;;;;;;0.80;0.80;;;;;;;;;;4994569;28;20436;-77
2024/03/26 06:13:50;;;;;;;0.47;0.47;;;;;;;;;;4991628;28;20041;-77
2024/03/26 06:16:17;;;;;;;1.23;0.75;;;;;;;;;;5005553;28;20026;-78
2024/03/26 06:18:43;;;;;;;1.00;0.90;;;;;;;;;;4995194;28;20113;-77
2024/03/26 06:21:09;;;;;;;0.88;0.60;;;;;;;;;;4991118;28;20540;-78
2024/03/26 06:23:35;;;;;;;1.60;0.63;;;;;;;;;;5007805;28;20441;-78
2024/03/26 06:26:01;;;;;;;0.90;0.85;;;;;;;;;;4994883;28;20057;-77
2024/03/26 06:28:28;;;;;;;0.95;0.80;;;;;;;;;;4994475;28;20023;-77
2024/03/26 06:30:54;;;;;;;1.05;0.88;;;;;;;;;;4993920;28;20026;-78
2024/03/26 06:33:20;;;;;;;1.30;1.00;;;;;;;;;;4994492;28;20022;-78
2024/03/26 06:35:46;;;;;;;1.08;0.80;;;;;;;;;;4994715;28;20485;-76
2024/03/26 06:38:13;;;;;;;1.15;0.80;;;;;;;;;;4994840;28;20118;-77
2024/03/26 06:40:39;;;;;;;1.60;0.88;;;;;;;;;;4995257;28;20022;-78
2024/03/26 06:43:05;;;;;;;1.95;0.93;;;;;;;;;;4994990;28;20121;-77
2024/03/26 06:45:31;;;;;;;0.77;0.77;;;;;;;;;;4994939;28;20101;-78
2024/03/26 06:47:58;;;;;;;1.02;0.77;;;;;;;;;;4995451;28;20389;-77
2024/03/26 06:50:24;;;;;;;2.60;0.73;;;;;;;;;;5010202;28;20026;-78
2024/03/26 06:52:51;;;;;;;1.23;0.80;;;;;;;;;;5002296;28;20026;-77
2024/03/26 06:55:18;;;;;;;1.27;0.90;;;;;;;;;;4994932;28;20038;-77
2024/03/26 06:57:44;;;;;;;1.05;0.88;;;;;;;;;;4995072;28;20061;-78
2024/03/26 07:00:14;;;;;;;2.15;1.48;;;;;;;;;;4995141;28;20035;-77
2024/03/26 07:02:40;;;;;;;1.17;0.90;;;;;;;;;;4995426;28;20151;-77
2024/03/26 07:05:07;;;;;;;0.70;0.60;;;;;;;;;;4994874;28;20034;-78
2024/03/26 07:07:33;;;;;;;1.13;0.90;;;;;;;;;;4995938;28;20034;-77
2024/03/26 07:10:00;;;;;;;0.80;0.80;;;;;;;;;;4995354;28;20137;-77
2024/03/26 07:12:26;;;;;;;1.40;1.23;;;;;;;;;;4995471;28;20384;-77
2024/03/26 07:14:53;;;;;;;1.52;0.98;;;;;;;;;;4999788;28;20036;-78
2024/03/26 07:17:19;;;;;;;0.85;0.85;;;;;;;;;;5003639;28;20019;-77
2024/03/26 07:19:49;;;;;;;1.60;1.02;;;;;;;;;;5011785;28;20022;-78
2024/03/26 07:22:15;;;;;;;1.35;0.77;;;;;;;;;;5014961;28;20045;-77
2024/03/26 07:24:41;;;;;;;1.88;0.90;;;;;;;;;;5015256;28;20030;-77
2024/03/26 07:27:11;;;;;;;0.90;0.60;;;;;;;;;;5043984;23;20499;-82
2024/03/26 07:29:38;;;;;;;1.58;0.80;;;;;;;;;;4999705;28;20045;-82
2024/03/26 07:32:05;;;;;;;2.38;0.88;;;;;;;;;;5002329;28;20420;-82
2024/03/26 07:34:31;;;;;;;1.00;0.93;;;;;;;;;;5001987;28;20050;-80
2024/03/26 07:36:58;;;;;;;0.70;0.65;;;;;;;;;;4994107;28;20073;-79
2024/03/26 07:39:24;;;;;;;1.13;0.90;;;;;;;;;;5005219;28;20137;-82
2024/03/26 07:41:50;;;;;;;2.00;1.05;;;;;;;;;;5016891;28;20041;-79
2024/03/26 07:44:16;;;;;;;1.33;0.80;;;;;;;;;;4998830;28;20106;-80
2024/03/26 07:46:44;;;;;;;1.02;0.82;;;;;;;;;;5012498;28;20035;-82
2024/03/26 07:49:10;;;;;;;0.98;0.88;;;;;;;;;;5003226;28;20354;-82
2024/03/26 07:51:37;;;;;;;1.42;0.90;;;;;;;;;;5005368;28;20030;-80
2024/03/26 07:54:04;;;;;;;1.30;0.82;;;;;;;;;;5008057;28;20029;-82
2024/03/26 07:56:30;;;;;;;0.90;0.82;;;;;;;;;;5021174;28;20030;-82
2024/03/26 07:58:56;;;;;;;0.65;0.47;;;;;;;;;;4997958;28;20105;-81
2024/03/26 08:01:22;;;;;;;0.75;0.60;;;;;;;;;;5005403;28;20035;-83
2024/03/26 08:03:50;;;;;;;0.43;0.43;;;;;;;;;;5006957;28;20085;-82
2024/03/26 08:06:16;;;;;;;0.98;0.68;;;;;;;;;;5007059;28;20033;-81
2024/03/26 08:08:42;;;;;;;0.70;0.70;;;;;;;;;;5008904;28;20098;-81
2024/03/26 08:11:12;;;;;;;0.63;0.63;;;;;;;;;;5010039;28;20083;-79
2024/03/26 08:13:39;;;;;;;2.05;1.17;;;;;;;;;;5019537;28;20089;-79
2024/03/26 08:16:05;;;;;;;1.27;0.95;;;;;;;;;;5019791;28;20038;-78
2024/03/26 08:18:31;;;;;;;2.00;0.85;;;;;;;;;;5001359;28;20057;-78
2024/03/26 08:20:59;;;;;;;2.33;1.17;;;;;;;;;;5014756;28;20014;-81
2024/03/26 08:23:25;;;;;;;1.65;1.27;;;;;;;;;;5005784;28;20026;-82
2024/03/26 08:25:51;;;;;;;2.97;1.70;;;;;;;;;;5002849;28;20065;-81
2024/03/26 08:28:18;;;;;;;2.55;1.50;;;;;;;;;;5000305;28;20054;-78
2024/03/26 08:30:44;;;;;;;2.72;1.50;;;;;;;;;;5000978;28;20817;-80
2024/03/26 08:33:11;;;;;;;1.92;1.42;;;;;;;;;;5012085;28;20073;-82
2024/03/26 08:35:41;;;;;;;1.20;1.10;;;;;;;;;;4991853;28;20030;-79
2024/03/26 08:38:07;;;;;;;0.93;0.93;;;;;;;;;;5009533;28;20114;-81
2024/03/26 08:40:33;;;;;;;1.77;1.17;;;;;;;;;;5007314;28;20026;-81
2024/03/26 08:43:00;;;;;;;1.50;1.23;;;;;;;;;;5007800;28;20065;-81
2024/03/26 08:45:26;;;;;;;1.58;1.35;;;;;;;;;;4985496;28;20026;-81
2024/03/26 08:47:53;;;;;;;1.63;1.13;;;;;;;;;;5004493;28;20022;-81
2024/03/26 08:50:21;;;;;;;1.98;1.05;;;;;;;;;;5005277;28;20109;-81
2024/03/26 08:52:47;;;;;;;1.67;0.80;;;;;;;;;;4987278;28;20038;-81
2024/03/26 08:55:13;;;;;;;4.47;1.10;;;;;;;;;;5012732;28;20026;-82
2024/03/26 08:57:39;;;;;;;1.60;0.80;;;;;;;;;;4986577;28;20026;-82
2024/03/26 09:00:10;;;;;;;1.10;1.00;;;;;;;;;;5014337;28;20015;-82
2024/03/26 09:02:36;;;;;;;0.60;0.60;;;;;;;;;;5006902;28;20049;-80
2024/03/26 09:05:03;;;;;;;1.05;0.90;;;;;;;;;;5013749;28;20037;-77
2024/03/26 09:07:29;;;;;;;1.25;0.93;;;;;;;;;;5018157;28;20038;-79
2024/03/26 09:09:56;;;;;;;0.85;0.85;;;;;;;;;;5018999;28;20022;-80
2024/03/26 09:12:22;;;;;;;0.70;0.70;;;;;;;;;;4993897;28;20086;-83
2024/03/26 09:14:48;;;;;;;1.48;0.80;;;;;;;;;;5011259;28;20026;-81
2024/03/26 09:17:14;;;;;;;0.60;0.60;;;;;;;;;;5008466;28;20058;-82
2024/03/26 09:19:40;;;;;;;0.55;0.55;;;;;;;;;;5007669;28;20046;-82
2024/03/26 09:22:06;;;;;;;0.63;0.63;;;;;;;;;;5014398;28;20026;-82
2024/03/26 09:24:32;;;;;;;2.33;1.52;;;;;;;;;;5006799;28;20041;-82
2024/03/26 09:26:59;;;;;;;0.82;0.80;;;;;;;;;;4988920;28;20038;-82
2024/03/26 09:29:25;;;;;;;1.08;0.98;;;;;;;;;;5007816;28;20019;-81
2024/03/26 09:31:51;;;;;;;1.23;0.85;;;;;;;;;;4991827;28;20045;-80
2024/03/26 09:34:18;;;;;;;1.02;0.93;;;;;;;;;;5006488;28;20053;-81
2024/03/26 09:36:44;;;;;;;2.20;1.30;;;;;;;;;;4987320;28;20050;-82
2024/03/26 09:39:10;;;;;;;1.40;1.30;;;;;;;;;;5005940;28;20018;-81
2024/03/26 09:41:36;;;;;;;1.05;1.05;;;;;;;;;;5019599;28;20034;-82
2024/03/26 09:44:03;;;;;;;0.95;0.90;;;;;;;;;;5003822;28;20046;-81
2024/03/26 09:46:30;;;;;;;0.90;0.88;;;;;;;;;;5005010;28;20014;-82
2024/03/26 09:49:00;;;;;;;2.03;1.20;;;;;;;;;;5004058;28;20046;-80
2024/03/26 09:51:27;;;;;;;2.22;1.23;;;;;;;;;;5004982;28;20073;-81
2024/03/26 09:53:55;;;;;;;1.23;1.13;;;;;;;;;;4989466;28;20030;-81
2024/03/26 09:56:22;;;;;;;1.80;1.10;;;;;;;;;;5006104;28;20110;-82
2024/03/26 09:58:48;;;;;;;1.27;1.10;;;;;;;;;;5004078;28;20057;-82
2024/03/26 10:01:17;;;;;;;1.85;1.08;;;;;;;;;;4986447;28;20489;-80
2024/03/26 10:03:43;;;;;;;1.73;1.23;;;;;;;;;;5003247;28;20022;-82
2024/03/26 10:06:13;;;;;;;0.75;0.73;;;;;;;;;;5003343;28;20066;-81
2024/03/26 10:08:39;;;;;;;2.10;1.25;;;;;;;;;;5018000;28;20025;-82
2024/03/26 10:11:05;;;;;;;1.88;1.20;;;;;;;;;;5002779;28;20068;-80
2024/03/26 10:13:31;;;;;;;4.60;1.52;;;;;;;;;;5002817;28;20030;-82
2024/03/26 10:15:58;;;;;;;2.05;1.58;;;;;;;;;;4998315;28;20345;-82
2024/03/26 10:18:24;;;;;;;1.42;1.15;;;;;;;;;;5007433;28;20102;-80
2024/03/26 10:20:50;;;;;;;1.77;1.02;;;;;;;;;;5007815;28;20101;-81
2024/03/26 10:23:16;;;;;;;4.03;1.42;;;;;;;;;;5003769;28;20098;-79
2024/03/26 10:25:42;;;;;;;1.23;1.10;;;;;;;;;;5002804;28;20098;-80
2024/03/26 10:28:08;;;;;;;1.40;1.15;;;;;;;;;;4990942;28;20185;-80
2024/03/26 10:30:34;;;;;;;1.63;1.50;;;;;;;;;;5017470;28;20113;-79
2024/03/26 10:33:01;;;;;;;3.65;1.40;;;;;;;;;;5009462;28;20121;-79
2024/03/26 10:35:27;;;;;;;1.85;1.40;;;;;;;;;;5014643;28;20014;-82
2024/03/26 10:37:55;;;;;;;4.13;1.60;;;;;;;;;;5020854;28;20102;-81
2024/03/26 10:40:28;;;;;;;2.85;1.48;;;;;;;;;;4991995;28;20042;-79
2024/03/26 10:42:56;;;;;;;1.55;1.30;;;;;;;;;;5015898;28;20066;-77
2024/03/26 10:45:22;;;;;;;1.42;1.17;;;;;;;;;;5033491;28;20025;-76
2024/03/26 10:47:49;;;;;;;2.05;1.00;;;;;;;;;;5000606;28;20078;-77
2024/03/26 10:50:16;;;;;;;3.35;1.50;;;;;;;;;;5017891;28;20045;-78
2024/03/26 10:52:42;;;;;;;2.55;1.67;;;;;;;;;;5016568;28;20030;-78
2024/03/26 10:55:09;;;;;;;2.28;1.70;;;;;;;;;;5015849;28;20082;-76
2024/03/26 10:57:35;;;;;;;3.92;1.85;;;;;;;;;;5007615;28;20027;-78
2024/03/26 11:00:04;;;;;;;7.30;2.10;;;;;;;;;;5016767;28;20031;-78
2024/03/26 11:02:30;;;;;;;3.25;1.75;;;;;;;;;;5007972;28;20719;-82
2024/03/26 11:04:58;;;;;;;2.70;1.90;;;;;;;;;;5007040;28;20045;-81
2024/03/26 11:07:24;;;;;;;1.52;1.42;;;;;;;;;;5007932;28;20118;-81
2024/03/26 11:10:20;;;;;;;3.92;1.42;;;;;;;;;;5006765;28;20022;-80
2024/03/26 11:12:50;;;;;;;1.70;1.05;;;;;;;;;;4992252;28;20088;-82
2024/03/26 11:15:23;;;;;;;1.85;1.60;;;;;;;;;;5006119;28;20023;-82
2024/03/26 11:18:00;;;;;;;2.60;1.42;;;;;;;;;;5004239;28;20539;-83
2024/03/26 11:20:27;;;;;;;2.03;1.70;;;;;;;;;;5004443;28;20030;-82
2024/03/26 11:22:57;;;;;;;1.73;1.38;;;;;;;;;;4986183;28;20061;-80
2024/03/26 11:25:27;;;;;;;1.02;0.93;;;;;;;;;;5020591;28;20017;-80
2024/03/26 11:27:53;;;;;;;4.43;1.00;;;;;;;;;;5001799;28;20030;-81
2024/03/26 11:30:20;;;;;;;1.10;0.98;;;;;;;;;;4992050;28;20074;-81
2024/03/26 11:32:47;;;;;;;2.25;1.08;;;;;;;;;;5010696;28;20053;-80
2024/03/26 11:35:20;;;;;;;1.05;0.82;;;;;;;;;;5013592;28;20022;-81
2024/03/26 11:37:48;;;;;;;1.42;1.13;;;;;;;;;;5006923;28;20463;-82
2024/03/26 11:40:15;;;;;;;1.05;0.80;;;;;;;;;;4997438;28;20022;-81
2024/03/26 11:42:41;;;;;;;1.25;0.90;;;;;;;;;;5005347;28;20420;-81
2024/03/26 11:45:08;;;;;;;0.93;0.73;;;;;;;;;;5005196;28;20058;-82
2024/03/26 11:47:34;;;;;;;0.95;0.73;;;;;;;;;;4987490;28;20015;-80
2024/03/26 11:50:01;;;;;;;0.60;0.60;;;;;;;;;;4988567;28;20216;-81
2024/03/26 11:52:27;;;;;;;1.48;1.33;;;;;;;;;;5004683;28;20029;-81
2024/03/26 11:54:55;;;;;;;1.33;0.82;;;;;;;;;;4986351;28;20446;-82
2024/03/26 11:57:21;;;;;;;1.50;1.40;;;;;;;;;;5004801;28;20416;-82
2024/03/26 11:59:50;;;;;;;1.85;1.30;;;;;;;;;;4995449;28;20037;-82
2024/03/26 12:02:16;;;;;;;0.95;0.95;;;;;;;;;;5003714;28;20018;-80
2024/03/26 12:04:43;;;;;;;1.50;1.40;;;;;;;;;;5002940;28;20118;-80
2024/03/26 12:07:15;;;;;;;1.50;1.00;;;;;;;;;;4996979;28;20042;-80
2024/03/26 12:09:41;;;;;;;0.93;0.90;;;;;;;;;;5005012;28;20035;-81
2024/03/26 12:12:11;;;;;;;1.27;1.10;;;;;;;;;;5005130;28;20030;-82
2024/03/26 12:14:37;;;;;;;1.30;1.20;;;;;;;;;;5005538;28;20027;-78
2024/03/26 12:17:03;;;;;;;1.65;1.13;;;;;;;;;;5013952;28;20069;-82
2024/03/26 12:19:30;;;;;;;1.67;0.90;;;;;;;;;;5006093;28;20029;-80
2024/03/26 12:21:56;;;;;;;1.00;0.90;;;;;;;;;;5008491;28;20109;-81
2024/03/26 12:24:22;;;;;;;0.60;0.60;;;;;;;;;;5019713;28;20014;-77
2024/03/26 12:26:49;;;;;;;0.68;0.60;;;;;;;;;;5011574;28;20035;-76
2024/03/26 12:29:16;;;;;;;0.73;0.73;;;;;;;;;;4999605;28;20015;-78
2024/03/26 12:31:42;;;;;;;0.52;0.52;;;;;;;;;;4994272;28;20110;-80
2024/03/26 12:34:11;;;;;;;0.43;0.43;;;;;;;;;;5018365;28;20090;-79
2024/03/26 12:36:37;;;;;;;0.55;0.55;;;;;;;;;;5017504;28;20026;-78
2024/03/26 12:39:05;;;;;;;0.80;0.80;;;;;;;;;;5018846;28;20014;-80
2024/03/26 12:41:31;;;;;;;2.08;0.90;;;;;;;;;;5029400;28;20034;-78
2024/03/26 12:43:58;;;;;;;2.60;1.25;;;;;;;;;;5013409;28;20030;-77
2024/03/26 12:46:27;;;;;;;2.33;0.98;;;;;;;;;;5031272;28;20505;-79
2024/03/26 12:48:53;;;;;;;2.97;1.35;;;;;;;;;;5013259;28;20026;-80
2024/03/26 12:51:19;;;;;;;1.55;1.13;;;;;;;;;;5008721;28;20026;-79
2024/03/26 12:53:46;;;;;;;4.03;1.50;;;;;;;;;;5018198;28;20022;-77
2024/03/26 12:56:15;;;;;;;0.93;0.80;;;;;;;;;;5018759;28;20038;-79
2024/03/26 12:58:41;;;;;;;1.27;1.00;;;;;;;;;;5011085;28;20062;-78
2024/03/26 13:01:12;;;;;;;1.80;0.85;;;;;;;;;;5019135;28;20026;-78
2024/03/26 13:03:38;;;;;;;1.08;0.73;;;;;;;;;;5025450;28;20030;-81
2024/03/26 13:06:04;;;;;;;1.58;1.25;;;;;;;;;;5016168;28;20031;-82
2024/03/26 13:08:30;;;;;;;0.70;0.70;;;;;;;;;;4994442;28;20070;-81
2024/03/26 13:11:02;;;;;;;2.17;1.35;;;;;;;;;;4987373;28;20026;-81
2024/03/26 13:13:30;;;;;;;1.35;1.20;;;;;;;;;;5003005;28;20018;-84
2024/03/26 13:15:56;;;;;;;2.03;0.90;;;;;;;;;;5009420;28;20472;-82
2024/03/26 13:18:22;;;;;;;0.95;0.75;;;;;;;;;;5008554;28;20026;-81
2024/03/26 13:20:48;;;;;;;1.67;1.00;;;;;;;;;;5010826;28;20026;-83
2024/03/26 13:23:14;;;;;;;2.88;1.00;;;;;;;;;;5009491;28;20114;-82
2024/03/26 13:25:41;;;;;;;5.13;1.40;;;;;;;;;;5013348;28;20050;-83
2024/03/26 13:28:07;;;;;;;3.80;1.60;;;;;;;;;;4996333;28;20053;-80
2024/03/26 13:30:33;;;;;;;1.67;1.30;;;;;;;;;;5007853;28;20504;-82
2024/03/26 13:32:59;;;;;;;3.33;1.00;;;;;;;;;;5006397;28;20494;-83
2024/03/26 13:35:25;;;;;;;2.72;1.00;;;;;;;;;;5005169;28;20029;-84
2024/03/26 13:37:51;;;;;;;2.15;0.85;;;;;;;;;;5006623;28;20038;-83
2024/03/26 13:40:18;;;;;;;2.08;0.90;;;;;;;;;;5007126;28;20026;-82
2024/03/26 13:42:47;;;;;;;2.15;0.80;;;;;;;;;;4990166;28;20022;-81
2024/03/26 13:45:13;;;;;;;3.92;1.17;;;;;;;;;;5008329;28;20098;-83
2024/03/26 13:47:39;;;;;;;2.25;1.08;;;;;;;;;;5009058;28;20153;-83
2024/03/26 13:50:06;;;;;;;1.38;0.80;;;;;;;;;;5008308;28;20078;-83
2024/03/26 13:52:32;;;;;;;1.52;0.90;;;;;;;;;;5006614;28;20090;-82
2024/03/26 13:54:58;;;;;;;1.90;1.15;;;;;;;;;;5023668;28;20090;-81
2024/03/26 13:57:27;;;;;;;0.65;0.60;;;;;;;;;;4992956;28;20045;-81
2024/03/26 13:59:53;;;;;;;1.25;0.75;;;;;;;;;;4992606;28;20015;-81
2024/03/26 14:02:19;;;;;;;1.63;0.85;;;;;;;;;;5010458;28;20085;-82
2024/03/26 14:04:45;;;;;;;2.40;1.15;;;;;;;;;;5011479;28;20077;-83
2024/03/26 14:07:12;;;;;;;3.67;0.98;;;;;;;;;;5009129;28;20543;-83
2024/03/26 14:09:40;;;;;;;1.92;1.70;;;;;;;;;;5022468;28;20078;-83
2024/03/26 14:12:07;;;;;;;1.95;1.00;;;;;;;;;;4987671;28;20027;-83
2024/03/26 14:14:33;;;;;;;2.03;0.90;;;;;;;;;;5003131;28;20452;-82
2024/03/26 14:17:00;;;;;;;0.73;0.70;;;;;;;;;;5007084;28;20555;-83
2024/03/26 14:19:27;;;;;;;1.60;0.77;;;;;;;;;;5005341;28;20057;-83
2024/03/26 14:21:54;;;;;;;2.28;0.90;;;;;;;;;;5005411;28;20074;-82
2024/03/26 14:24:21;;;;;;;1.40;0.90;;;;;;;;;;5005560;28;20181;-82
2024/03/26 14:26:47;;;;;;;1.83;0.88;;;;;;;;;;5004966;28;20113;-81
2024/03/26 14:29:13;;;;;;;1.98;0.90;;;;;;;;;;5008791;28;20026;-81
2024/03/26 14:31:39;;;;;;;2.08;1.10;;;;;;;;;;5004561;28;20560;-83
2024/03/26 14:34:06;;;;;;;0.70;0.70;;;;;;;;;;4995966;28;20022;-82
2024/03/26 14:36:32;;;;;;;1.52;1.02;;;;;;;;;;4986339;28;20011;-83
2024/03/26 14:38:58;;;;;;;1.88;1.27;;;;;;;;;;5005566;28;20026;-80